createdAt,value
2022-11-04T00:03:08.936Z,12.44
2022-11-04T00:08:08.561Z,12.56
2022-11-04T00:13:08.710Z,12.42
2022-11-04T00:18:08.448Z,12.42
2022-11-04T00:23:08.688Z,12.64
2022-11-04T00:28:08.530Z,12.57
2022-11-04T00:33:08.240Z,12.57
2022-11-04T00:38:08.430Z,12.70
2022-11-04T00:43:08.102Z,12.62
2022-11-04T00:48:08.485Z,12.38
2022-11-04T00:53:08.350Z,12.38
2022-11-04T00:58:08.055Z,12.39
2022-11-04T01:03:08.174Z,12.54
2022-11-04T01:08:07.795Z,12.49
2022-11-04T01:13:08.017Z,12.59
2022-11-04T01:18:08.034Z,12.69
2022-11-04T01:23:07.575Z,12.70
2022-11-04T01:28:07.927Z,12.66
2022-11-04T01:33:07.443Z,12.75
2022-11-04T01:38:07.689Z,12.81
2022-11-04T01:43:07.596Z,12.69
2022-11-04T01:48:07.265Z,12.64
2022-11-04T01:53:07.605Z,12.62
2022-11-04T01:58:07.116Z,12.54
2022-11-04T02:03:07.412Z,12.67
2022-11-04T02:08:07.054Z,12.63
2022-11-04T02:13:07.404Z,12.79
2022-11-04T02:18:06.847Z,12.92
2022-11-04T02:23:07.024Z,13.00
2022-11-04T02:28:06.738Z,13.04
2022-11-04T02:33:07.069Z,12.92
2022-11-04T02:38:06.571Z,12.84
2022-11-04T02:43:06.830Z,12.75
2022-11-04T02:48:06.526Z,12.85
2022-11-04T02:53:06.911Z,12.95
2022-11-04T02:58:06.318Z,13.11
2022-11-04T03:03:06.475Z,13.04
2022-11-04T03:08:06.683Z,13.18
2022-11-04T03:13:06.107Z,12.92
2022-11-04T03:18:06.360Z,12.70
2022-11-04T03:23:06.003Z,12.63
2022-11-04T03:28:06.300Z,12.54
2022-11-04T03:33:06.073Z,12.59
2022-11-04T03:38:05.781Z,12.45
2022-11-04T03:43:05.844Z,11.99
2022-11-04T03:48:05.680Z,11.94
2022-11-04T03:53:05.683Z,11.86
2022-11-04T03:58:05.657Z,11.86
2022-11-04T04:03:05.550Z,11.86
2022-11-04T04:08:05.563Z,11.83
2022-11-04T04:13:05.401Z,11.82
2022-11-04T04:18:05.430Z,11.77
2022-11-04T04:23:05.168Z,11.71
2022-11-04T04:28:05.192Z,11.77
2022-11-04T04:33:05.051Z,11.80
2022-11-04T04:38:05.018Z,11.77
2022-11-04T04:43:04.955Z,11.93
2022-11-04T04:48:04.934Z,12.09
2022-11-04T04:53:04.805Z,12.34
2022-11-04T04:58:04.792Z,12.39
2022-11-04T05:03:04.686Z,12.39
2022-11-04T05:08:04.641Z,12.38
2022-11-04T05:13:04.862Z,12.37
2022-11-04T05:18:04.484Z,12.34
2022-11-04T05:23:04.390Z,12.23
2022-11-04T05:28:04.335Z,12.23
2022-11-04T05:33:05.297Z,12.24
2022-11-04T05:38:04.220Z,12.27
2022-11-04T05:43:04.124Z,12.16
2022-11-04T05:48:04.060Z,12.21
2022-11-04T05:53:03.993Z,12.05
2022-11-04T05:58:03.910Z,12.04
2022-11-04T06:03:03.920Z,12.01
2022-11-04T06:08:03.792Z,11.96
2022-11-04T06:13:03.741Z,11.77
2022-11-04T06:18:03.650Z,11.70
2022-11-04T06:23:03.618Z,11.72
2022-11-04T06:28:03.601Z,11.71
2022-11-04T06:33:03.501Z,11.83
2022-11-04T06:38:03.402Z,11.90
2022-11-04T06:43:03.313Z,11.90
2022-11-04T06:48:03.279Z,11.99
2022-11-04T06:53:03.224Z,12.04
2022-11-04T06:58:03.249Z,12.11
2022-11-04T07:03:03.049Z,12.30
2022-11-04T07:08:03.025Z,12.46
2022-11-04T07:13:02.920Z,12.69
2022-11-04T07:18:02.873Z,12.84
2022-11-04T07:23:02.796Z,13.14
2022-11-04T07:28:02.757Z,13.44
2022-11-04T07:33:02.673Z,13.47
2022-11-04T07:38:02.647Z,13.67
2022-11-04T07:43:02.562Z,13.88
2022-11-04T07:48:02.477Z,14.19
2022-11-04T07:53:02.386Z,14.31
2022-11-04T07:58:02.364Z,14.29
2022-11-04T08:03:02.300Z,14.25
2022-11-04T08:08:02.241Z,14.16
2022-11-04T08:13:02.132Z,13.99
2022-11-04T08:18:02.120Z,13.91
2022-11-04T08:23:02.004Z,13.80
2022-11-04T08:28:01.946Z,13.70
2022-11-04T08:33:01.859Z,13.63
2022-11-04T08:38:01.824Z,13.61
2022-11-04T08:43:01.764Z,13.69
2022-11-04T08:48:05.485Z,13.88
2022-11-04T08:53:01.970Z,13.92
2022-11-04T08:58:02.499Z,13.89
2022-11-04T09:03:01.507Z,13.98
2022-11-04T09:08:01.408Z,13.89
2022-11-04T09:13:01.346Z,13.87
2022-11-04T09:18:01.290Z,13.81
2022-11-04T09:23:01.254Z,13.81
2022-11-04T09:28:01.174Z,13.65
2022-11-04T09:33:01.107Z,13.70
2022-11-04T09:38:01.052Z,13.58
2022-11-04T09:43:00.972Z,13.51
2022-11-04T09:48:00.976Z,13.49
2022-11-04T09:53:00.801Z,13.38
2022-11-04T09:58:00.773Z,13.38
2022-11-04T10:03:00.663Z,13.33
2022-11-04T10:08:00.879Z,13.24
2022-11-04T10:13:00.590Z,13.21
2022-11-04T10:18:00.486Z,13.18
2022-11-04T10:23:00.725Z,13.14
2022-11-04T10:28:00.335Z,13.17
2022-11-04T10:33:00.281Z,13.07
2022-11-04T10:38:00.322Z,13.00
2022-11-04T10:43:00.173Z,12.95
2022-11-04T10:48:00.112Z,12.96
2022-11-04T10:53:00.112Z,12.97
2022-11-04T10:57:59.968Z,12.95
2022-11-04T11:02:59.910Z,12.89
2022-11-04T11:07:59.814Z,12.92
2022-11-04T11:12:59.774Z,12.92
2022-11-04T11:17:59.677Z,12.89
2022-11-04T11:23:04.621Z,12.78
2022-11-04T11:28:00.566Z,12.51
2022-11-04T11:32:59.522Z,12.38
2022-11-04T11:37:59.484Z,12.46
2022-11-04T11:42:59.378Z,12.33
2022-11-04T11:47:59.297Z,12.33
2022-11-04T11:52:59.265Z,12.39
2022-11-04T12:03:00.556Z,12.38
2022-11-04T12:12:59.972Z,12.49
2022-11-04T12:17:58.930Z,12.31
2022-11-04T12:22:58.911Z,12.20
2022-11-04T12:27:58.801Z,11.99
2022-11-04T12:32:58.736Z,11.80
2022-11-04T12:37:58.661Z,11.78
2022-11-04T12:42:58.584Z,11.72
2022-11-04T12:47:58.526Z,11.68
2022-11-04T12:52:58.551Z,11.70
2022-11-04T12:57:58.415Z,11.87
2022-11-04T13:02:58.339Z,11.82
2022-11-04T13:07:58.333Z,11.83
2022-11-04T13:12:58.208Z,12.02
2022-11-04T13:17:58.139Z,12.02
2022-11-04T13:23:08.036Z,11.90
2022-11-04T13:27:58.980Z,11.90
2022-11-04T13:32:57.927Z,11.89
2022-11-04T13:37:57.884Z,11.94
2022-11-04T13:42:57.816Z,11.62
2022-11-04T13:47:57.737Z,11.68
2022-11-04T13:52:57.643Z,11.64
2022-11-04T13:57:57.615Z,11.59
2022-11-04T14:02:57.697Z,11.50
2022-11-04T14:07:57.511Z,11.56
2022-11-04T14:12:57.469Z,11.50
2022-11-04T14:17:57.733Z,11.31
2022-11-04T14:22:57.261Z,11.35
2022-11-04T14:27:57.196Z,11.25
2022-11-04T14:32:57.116Z,11.21
2022-11-04T14:37:57.108Z,11.14
2022-11-04T14:42:57.155Z,11.19
2022-11-04T14:47:57.044Z,11.11
2022-11-04T14:52:56.877Z,11.25
2022-11-04T14:57:56.814Z,11.27
2022-11-04T15:02:56.777Z,11.32
2022-11-04T15:07:56.710Z,11.29
2022-11-04T15:12:56.596Z,11.21
2022-11-04T15:17:56.534Z,11.16
2022-11-04T15:22:56.488Z,11.09
2022-11-04T15:27:56.401Z,11.02
2022-11-04T15:32:56.399Z,10.80
2022-11-04T15:37:56.316Z,10.76
2022-11-04T15:42:56.245Z,10.74
2022-11-04T15:47:56.163Z,10.73
2022-11-04T15:52:56.135Z,10.78
2022-11-04T15:57:56.030Z,10.60
2022-11-04T16:02:56.005Z,10.62
2022-11-04T16:07:56.218Z,10.62
2022-11-04T16:12:55.851Z,10.58
2022-11-04T16:17:55.815Z,10.52
2022-11-04T16:22:55.700Z,10.53
2022-11-04T16:27:55.672Z,10.62
2022-11-04T16:32:55.595Z,10.65
2022-11-04T16:37:55.527Z,10.47
2022-11-04T16:42:55.539Z,10.55
2022-11-04T16:47:55.368Z,10.60
2022-11-04T16:52:55.328Z,10.58
2022-11-04T16:57:55.308Z,10.63
2022-11-04T17:02:55.199Z,10.62
2022-11-04T17:08:00.186Z,10.59
2022-11-04T17:12:56.109Z,10.52
2022-11-04T17:17:55.007Z,10.51
2022-11-04T17:22:54.905Z,10.58
2022-11-04T17:27:54.877Z,10.52
2022-11-04T17:32:54.838Z,10.46
2022-11-04T17:37:54.747Z,10.51
2022-11-04T17:42:54.643Z,10.56
2022-11-04T17:47:54.675Z,10.47
2022-11-04T17:52:54.545Z,10.51
2022-11-04T17:57:54.489Z,10.53
2022-11-04T18:02:54.480Z,10.47
2022-11-04T18:07:54.350Z,10.55
2022-11-04T18:12:54.996Z,10.42
2022-11-04T18:17:54.204Z,10.33
2022-11-04T18:22:54.202Z,10.30
2022-11-04T18:27:54.147Z,10.25
2022-11-04T18:32:54.047Z,10.22
2022-11-04T18:37:53.931Z,10.17
2022-11-04T18:42:53.931Z,10.17
2022-11-04T18:47:53.843Z,10.18
2022-11-04T18:52:53.782Z,10.10
2022-11-04T18:57:53.675Z,10.07
2022-11-04T19:02:53.669Z,10.06
2022-11-04T19:07:53.528Z,10.03
2022-11-04T19:12:53.608Z,10.14
2022-11-04T19:17:53.516Z,10.19
2022-11-04T19:22:53.407Z,10.21
2022-11-04T19:28:11.955Z,10.25
2022-11-04T19:32:54.193Z,10.14
2022-11-04T19:37:53.242Z,10.09
2022-11-04T19:42:53.117Z,10.09
2022-11-04T19:47:53.037Z,10.03
2022-11-04T19:52:52.930Z,9.99
2022-11-04T19:57:52.927Z,10.07
2022-11-04T20:02:52.804Z,10.17
2022-11-04T20:07:52.772Z,10.14
2022-11-04T20:12:52.672Z,10.14
2022-11-04T20:17:54.677Z,10.18
2022-11-04T20:22:52.536Z,10.09
2022-11-04T20:27:52.514Z,10.07
2022-11-04T20:32:52.461Z,10.03
2022-11-04T20:37:52.359Z,10.14
2022-11-04T20:42:52.333Z,10.22
2022-11-04T20:47:52.234Z,10.26
2022-11-04T20:52:52.254Z,10.32
2022-11-04T20:57:52.301Z,10.24
2022-11-04T21:02:52.073Z,10.26
2022-11-04T21:07:51.998Z,10.28
2022-11-04T21:12:51.890Z,10.30
2022-11-04T21:17:51.873Z,10.44
2022-11-04T21:22:51.823Z,10.39
2022-11-04T21:27:51.775Z,10.44
2022-11-04T21:32:51.706Z,10.55
2022-11-04T21:37:51.664Z,10.58
2022-11-04T21:42:51.520Z,10.58
2022-11-04T21:47:51.523Z,10.43
2022-11-04T21:52:51.445Z,10.47
2022-11-04T21:57:51.540Z,10.58
2022-11-04T22:02:51.609Z,10.47
2022-11-04T22:07:52.334Z,10.42
2022-11-04T22:12:51.439Z,10.34
2022-11-04T22:17:51.148Z,10.42
2022-11-04T22:22:51.002Z,10.39
2022-11-04T22:27:50.903Z,10.44
2022-11-04T22:32:54.511Z,10.56
2022-11-04T22:37:50.807Z,10.51
2022-11-04T22:42:50.720Z,10.47
2022-11-04T22:47:50.668Z,10.32
2022-11-04T22:52:50.623Z,10.25
2022-11-04T22:57:50.531Z,10.22
2022-11-04T23:02:50.702Z,10.25
2022-11-04T23:07:50.455Z,10.17
2022-11-04T23:12:50.336Z,10.15
2022-11-04T23:17:50.260Z,10.14
2022-11-04T23:22:50.220Z,10.15
2022-11-04T23:27:50.120Z,10.14
2022-11-04T23:32:50.057Z,10.15
2022-11-04T23:37:50.010Z,10.15
2022-11-04T23:42:49.925Z,10.21
2022-11-04T23:47:49.843Z,10.14
2022-11-04T23:52:49.804Z,10.25
2022-11-04T23:57:49.746Z,10.30
